Time;durP1;ratioP1;P1;durP2;ratioP2;P2;SDS_P1;SDS_P2;PMS_P1;PMS_P2;Temp;Humidity;BMP_temperature;BMP_pressure;BME280_temperature;BME280_humidity;BME280_pressure;Samples;Min_cycle;Max_cycle;Signal;HPM_P1;HPM_P2
2021/06/20 00:02:03;;;;;;;;;;;;;;;20.59;79.50;100654.72;4969522;28;1452;-58
2021/06/20 00:04:31;;;;;;;;;;;;;;;20.54;79.31;100651.63;4965325;28;1566;-60
2021/06/20 00:06:58;;;;;;;;;;;;;;;20.50;79.75;100672.56;4962365;28;1397;-60
2021/06/20 00:09:25;;;;;;;;;;;;;;;20.51;78.30;100658.09;4963067;28;1768;-58
2021/06/20 00:11:51;;;;;;;;;;;;;;;20.49;79.86;100657.41;4959744;28;1720;-59
2021/06/20 00:14:18;;;;;;;;;;;;;;;20.51;79.05;100655.41;4963241;28;1632;-58
2021/06/20 00:16:45;;;;;;;;;;;;;;;20.50;79.79;100658.28;4957846;28;1585;-59
2021/06/20 00:19:11;;;;;;;;;;;;;;;20.42;79.68;100643.75;4960499;28;1910;-59
2021/06/20 00:21:40;;;;;;;;;;;;;;;20.35;78.86;100641.78;4961041;28;1610;-60
2021/06/20 00:24:07;;;;;;;;;;;;;;;20.36;78.98;100643.50;4960775;28;1633;-59
2021/06/20 00:26:34;;;;;;;;;;;;;;;20.39;79.02;100652.09;4960486;28;1423;-58
2021/06/20 00:29:00;;;;;;;;;;;;;;;20.41;78.75;100639.38;4966083;28;1728;-58
2021/06/20 00:31:27;;;;;;;;;;;;;;;20.47;78.49;100654.03;4965595;28;1512;-58
2021/06/20 00:33:54;;;;;;;;;;;;;;;20.45;79.46;100659.56;4967160;28;1709;-58
2021/06/20 00:36:20;;;;;;;;;;;;;;;20.39;78.44;100652.09;4959016;28;1457;-58
2021/06/20 00:38:48;;;;;;;;;;;;;;;20.41;78.65;100654.63;4962581;28;1911;-60
2021/06/20 00:41:15;;;;;;;;;;;;;;;20.39;78.86;100664.66;4962097;28;1511;-58
2021/06/20 00:43:42;;;;;;;;;;;;;;;20.44;79.00;100673.13;4965410;28;1760;-59
2021/06/20 00:46:09;;;;;;;;;;;;;;;20.48;78.90;100673.69;4956268;28;1507;-59
2021/06/20 00:48:36;;;;;;;;;;;;;;;20.41;79.21;100673.44;4959575;28;1401;-59
2021/06/20 00:51:03;;;;;;;;;;;;;;;20.40;78.36;100652.94;4963107;28;1491;-60
2021/06/20 00:53:29;;;;;;;;;;;;;;;20.40;79.13;100671.75;4959559;28;1519;-58
2021/06/20 00:55:59;;;;;;;;;;;;;;;20.41;79.34;100662.69;4954849;28;1578;-58
2021/06/20 00:58:25;;;;;;;;;;;;;;;20.40;78.46;100661.84;4962653;28;1910;-58
2021/06/20 01:00:52;;;;;;;;;;;;;;;20.41;78.21;100660.00;4961074;28;1482;-58
2021/06/20 01:03:18;;;;;;;;;;;;;;;20.44;77.79;100665.91;4961930;28;1421;-60
2021/06/20 01:05:45;;;;;;;;;;;;;;;20.40;78.77;100672.59;4955672;28;1444;-59
2021/06/20 01:08:12;;;;;;;;;;;;;;;20.30;78.22;100665.56;4957531;28;1633;-59
2021/06/20 01:10:39;;;;;;;;;;;;;;;20.31;77.97;100660.03;4957735;28;1386;-59
2021/06/20 01:13:08;;;;;;;;;;;;;;;20.29;79.36;100672.75;4959849;28;1582;-59
2021/06/20 01:15:36;;;;;;;;;;;;;;;20.32;79.13;100674.31;4931415;29;1488;-60
2021/06/20 01:18:02;;;;;;;;;;;;;;;20.36;78.48;100675.72;4954885;28;1650;-59
2021/06/20 01:20:30;;;;;;;;;;;;;;;20.36;78.90;100670.34;4959033;28;1975;-58
2021/06/20 01:22:58;;;;;;;;;;;;;;;20.35;78.92;100676.69;4959645;28;1731;-59
2021/06/20 01:25:26;;;;;;;;;;;;;;;20.33;77.86;100665.25;4959739;28;1597;-58
2021/06/20 01:27:54;;;;;;;;;;;;;;;20.35;78.21;100668.66;4963319;28;1474;-58
2021/06/20 01:30:22;;;;;;;;;;;;;;;20.34;78.84;100672.34;4951520;28;1593;-57
2021/06/20 01:32:49;;;;;;;;;;;;;;;20.30;78.73;100663.72;4952996;28;1581;-58
2021/06/20 01:35:16;;;;;;;;;;;;;;;20.26;78.40;100665.84;4954439;28;1463;-58
2021/06/20 01:37:42;;;;;;;;;;;;;;;20.19;78.12;100667.44;4954863;28;1979;-59
2021/06/20 01:40:11;;;;;;;;;;;;;;;20.26;79.08;100671.22;4954208;29;1983;-59
2021/06/20 01:42:38;;;;;;;;;;;;;;;20.31;78.26;100656.50;4955798;28;1523;-57
2021/06/20 01:45:07;;;;;;;;;;;;;;;20.30;77.49;100654.81;4952556;28;1478;-59
2021/06/20 01:47:34;;;;;;;;;;;;;;;20.27;78.50;100659.50;4954893;28;1566;-57
2021/06/20 01:50:02;;;;;;;;;;;;;;;20.26;77.64;100665.84;4959143;28;1561;-59
2021/06/20 01:52:29;;;;;;;;;;;;;;;20.26;77.70;100657.78;4951024;28;1519;-59
2021/06/20 01:54:56;;;;;;;;;;;;;;;20.26;77.98;100668.53;4959563;28;1561;-59
2021/06/20 01:57:25;;;;;;;;;;;;;;;20.27;78.70;100656.81;4954770;28;1641;-57
2021/06/20 01:59:53;;;;;;;;;;;;;;;20.27;78.11;100654.13;4957381;28;1993;-57
2021/06/20 02:02:20;;;;;;;;;;;;;;;20.32;79.13;100642.09;4951496;28;1545;-60
2021/06/20 02:04:47;;;;;;;;;;;;;;;20.34;78.21;100661.59;4953086;28;1643;-57
2021/06/20 02:07:13;;;;;;;;;;;;;;;20.29;78.60;100658.50;4953175;28;1466;-59
2021/06/20 02:09:40;;;;;;;;;;;;;;;20.25;78.42;100658.78;4953720;28;1619;-57
2021/06/20 02:12:08;;;;;;;;;;;;;;;20.26;77.80;100660.47;4953665;28;1493;-59
2021/06/20 02:14:37;;;;;;;;;;;;;;;20.27;78.73;100655.94;4950960;28;1519;-60
2021/06/20 02:17:07;;;;;;;;;;;;;;;20.27;78.63;100654.13;4953373;28;1617;-57
2021/06/20 02:19:34;;;;;;;;;;;;;;;20.31;77.90;100669.94;4952645;29;1984;-57
2021/06/20 02:22:01;;;;;;;;;;;;;;;20.27;78.21;100662.19;4953253;28;1535;-59
2021/06/20 02:24:28;;;;;;;;;;;;;;;20.30;78.88;100644.91;4953284;28;1572;-57
2021/06/20 02:26:55;;;;;;;;;;;;;;;20.26;78.56;100656.94;4953434;28;1432;-58
2021/06/20 02:29:21;;;;;;;;;;;;;;;20.31;77.71;100651.13;4952905;28;1574;-57
2021/06/20 02:31:49;;;;;;;;;;;;;;;20.31;78.21;100641.22;4954044;28;1561;-58
2021/06/20 02:34:16;;;;;;;;;;;;;;;20.32;78.86;100671.63;4953908;29;1647;-60
2021/06/20 02:36:43;;;;;;;;;;;;;;;20.33;78.66;100662.56;4953144;28;1516;-59
2021/06/20 02:39:09;;;;;;;;;;;;;;;20.33;78.52;100676.00;4953285;28;1978;-59
2021/06/20 02:41:36;;;;;;;;;;;;;;;20.31;78.74;100668.09;4953900;28;1580;-57
2021/06/20 02:44:02;;;;;;;;;;;;;;;20.29;78.61;100670.06;4953406;28;1656;-59
2021/06/20 02:46:29;;;;;;;;;;;;;;;20.29;77.89;100653.13;4953416;28;1708;-57
2021/06/20 02:48:57;;;;;;;;;;;;;;;20.25;78.05;100666.84;4953431;28;1506;-57
2021/06/20 02:51:24;;;;;;;;;;;;;;;20.22;77.89;100656.38;4953366;28;1565;-59
2021/06/20 02:53:51;;;;;;;;;;;;;;;20.30;78.65;100674.47;4952091;29;1455;-59
2021/06/20 02:56:17;;;;;;;;;;;;;;;20.27;77.69;100662.19;4952016;28;1447;-59
2021/06/20 02:58:44;;;;;;;;;;;;;;;20.29;77.47;100661.19;4950407;28;1504;-59
2021/06/20 03:01:10;;;;;;;;;;;;;;;20.24;77.61;100645.50;4951060;28;1903;-59
2021/06/20 03:03:37;;;;;;;;;;;;;;;20.23;77.52;100660.78;4952910;28;1515;-57
2021/06/20 03:06:06;;;;;;;;;;;;;;;20.26;77.91;100660.47;4946129;29;1387;-59
2021/06/20 03:08:33;;;;;;;;;;;;;;;20.25;77.33;100657.94;4950216;29;1428;-58
2021/06/20 03:11:00;;;;;;;;;;;;;;;20.26;77.36;100662.31;4943577;28;1428;-58
2021/06/20 03:13:27;;;;;;;;;;;;;;;20.27;76.98;100667.56;4946241;29;1423;-57
2021/06/20 03:15:54;;;;;;;;;;;;;;;20.25;77.30;100668.66;4944145;29;1503;-58
2021/06/20 03:18:21;;;;;;;;;;;;;;;20.23;78.04;100647.34;4951538;28;1479;-57
2021/06/20 03:20:47;;;;;;;;;;;;;;;20.24;77.36;100650.88;4953627;28;1977;-60
2021/06/20 03:23:15;;;;;;;;;;;;;;;20.24;78.08;100658.94;4951260;29;1563;-57
2021/06/20 03:25:42;;;;;;;;;;;;;;;20.24;77.80;100654.41;4955321;29;1472;-57
2021/06/20 03:28:09;;;;;;;;;;;;;;;20.25;77.77;100658.78;4952762;28;1402;-58
2021/06/20 03:30:36;;;;;;;;;;;;;;;20.22;77.02;100642.97;4949618;29;1515;-59
2021/06/20 03:33:03;;;;;;;;;;;;;;;20.23;77.45;100652.72;4954784;29;1526;-57
2021/06/20 03:35:29;;;;;;;;;;;;;;;20.25;77.95;100648.06;4951959;29;1475;-57
2021/06/20 03:37:56;;;;;;;;;;;;;;;20.25;77.69;100645.38;4953874;28;1574;-57
2021/06/20 03:40:24;;;;;;;;;;;;;;;20.22;77.74;100645.66;4951543;28;1981;-59
2021/06/20 03:42:51;;;;;;;;;;;;;;;20.27;77.03;100667.56;4953837;28;1415;-59
2021/06/20 03:45:18;;;;;;;;;;;;;;;20.24;78.15;100651.72;4950613;28;1483;-60
2021/06/20 03:47:44;;;;;;;;;;;;;;;20.23;78.51;100671.53;4948556;28;1473;-59
2021/06/20 03:50:11;;;;;;;;;;;;;;;20.25;78.14;100642.69;4949695;28;1428;-58
2021/06/20 03:52:38;;;;;;;;;;;;;;;20.25;77.37;100650.75;4954021;28;1508;-59
2021/06/20 03:55:06;;;;;;;;;;;;;;;20.26;77.59;100643.53;4955341;28;1594;-59
2021/06/20 03:57:34;;;;;;;;;;;;;;;20.26;77.52;100643.53;4952595;29;1380;-59
2021/06/20 04:00:00;;;;;;;;;;;;;;;20.27;77.76;100653.25;4955560;28;2058;-59
2021/06/20 04:02:27;;;;;;;;;;;;;;;20.27;77.56;100653.25;4960584;28;1630;-60
2021/06/20 04:04:53;;;;;;;;;;;;;;;20.29;77.76;100658.50;4958835;28;1721;-58
2021/06/20 04:07:21;;;;;;;;;;;;;;;20.23;77.12;100642.00;4965076;28;1629;-57
2021/06/20 04:09:47;;;;;;;;;;;;;;;20.24;77.14;100650.88;4961970;28;1582;-57
2021/06/20 04:12:14;;;;;;;;;;;;;;;20.18;77.41;100656.84;4956140;28;1643;-58
2021/06/20 04:14:43;;;;;;;;;;;;;;;20.22;78.06;100650.19;4964534;28;1613;-57
2021/06/20 04:17:10;;;;;;;;;;;;;;;20.22;77.37;100642.97;4954965;28;1520;-57
2021/06/20 04:19:37;;;;;;;;;;;;;;;20.25;77.51;100645.38;4954887;28;1910;-57
2021/06/20 04:22:03;;;;;;;;;;;;;;;20.32;78.00;100650.16;4959082;28;1400;-58
2021/06/20 04:24:30;;;;;;;;;;;;;;;20.31;77.30;100635.84;4960737;28;1697;-57
2021/06/20 04:26:57;;;;;;;;;;;;;;;20.33;77.62;100644.59;4961232;28;1634;-58
2021/06/20 04:29:23;;;;;;;;;;;;;;;20.32;77.06;100636.72;4961201;28;1500;-58
2021/06/20 04:31:51;;;;;;;;;;;;;;;20.30;77.31;100623.44;4956150;28;1460;-59
2021/06/20 04:34:18;;;;;;;;;;;;;;;20.32;78.27;100631.34;4956351;28;1637;-59
2021/06/20 04:36:44;;;;;;;;;;;;;;;20.32;77.65;100648.31;4958132;28;1505;-59
2021/06/20 04:39:11;;;;;;;;;;;;;;;20.37;78.29;100645.16;4955791;28;1517;-59
2021/06/20 04:41:39;;;;;;;;;;;;;;;20.39;78.02;100622.56;4953118;28;1961;-59
2021/06/20 04:44:07;;;;;;;;;;;;;;;20.36;78.53;100640.81;4964802;28;1055;-58
2021/06/20 04:46:36;;;;;;;;;;;;;;;20.34;77.65;100626.69;4953688;28;1580;-59
2021/06/20 04:49:06;;;;;;;;;;;;;;;20.35;78.46;100637.28;4960786;28;1649;-58
2021/06/20 04:51:33;;;;;;;;;;;;;;;20.33;77.98;100647.28;4957136;28;1529;-57
2021/06/20 04:54:00;;;;;;;;;;;;;;;20.32;78.71;100621.44;4959443;28;1540;-58
2021/06/20 04:56:27;;;;;;;;;;;;;;;20.29;77.59;100631.63;4959666;28;1668;-58
2021/06/20 04:58:54;;;;;;;;;;;;;;;20.30;78.52;100634.19;4965190;28;1471;-59
2021/06/20 05:01:20;;;;;;;;;;;;;;;20.31;78.68;100625.13;4958361;28;1914;-59
2021/06/20 05:03:48;;;;;;;;;;;;;;;20.31;77.54;100624.28;4961255;28;1552;-58
2021/06/20 05:06:16;;;;;;;;;;;;;;;20.29;78.42;100632.47;4961137;28;1577;-58
2021/06/20 05:08:43;;;;;;;;;;;;;;;20.36;77.80;100627.38;4961734;28;1593;-60
2021/06/20 05:11:09;;;;;;;;;;;;;;;20.36;78.38;100612.09;4958742;28;1445;-57
2021/06/20 05:13:36;;;;;;;;;;;;;;;20.37;78.31;100626.38;4963499;28;1725;-60
2021/06/20 05:16:03;;;;;;;;;;;;;;;20.40;77.91;100623.41;4955086;28;1548;-58
2021/06/20 05:18:29;;;;;;;;;;;;;;;20.78;76.00;100621.53;4954688;28;1468;-59
2021/06/20 05:20:56;;;;;;;;;;;;;;;20.86;76.14;100625.16;4955020;28;1906;-58
2021/06/20 05:23:24;;;;;;;;;;;;;;;20.94;75.33;100637.84;4956039;28;1713;-59
2021/06/20 05:25:51;;;;;;;;;;;;;;;20.84;75.69;100629.00;4958088;28;1724;-57
2021/06/20 05:28:18;;;;;;;;;;;;;;;20.68;76.33;100640.41;4947309;28;1377;-58
2021/06/20 05:30:46;;;;;;;;;;;;;;;20.59;77.51;100634.09;4949690;28;1516;-59
2021/06/20 05:33:13;;;;;;;;;;;;;;;20.58;76.92;100642.25;4949285;29;1544;-58
2021/06/20 05:35:39;;;;;;;;;;;;;;;20.50;76.93;100634.09;4957494;28;1444;-59
2021/06/20 05:38:06;;;;;;;;;;;;;;;20.45;77.74;100642.59;4953724;28;1725;-59
2021/06/20 05:40:34;;;;;;;;;;;;;;;20.42;77.48;100659.00;4954831;28;1948;-59
2021/06/20 05:43:01;;;;;;;;;;;;;;;20.41;77.46;100642.06;4955913;28;1364;-57
2021/06/20 05:45:27;;;;;;;;;;;;;;;20.40;77.48;100655.63;4945743;28;1496;-58
2021/06/20 05:47:54;;;;;;;;;;;;;;;20.43;77.93;100641.88;4954092;28;1503;-59
2021/06/20 05:50:21;;;;;;;;;;;;;;;20.40;78.41;100647.56;4948168;28;1464;-58
2021/06/20 05:52:47;;;;;;;;;;;;;;;20.41;77.52;100641.19;4952763;28;1453;-58
2021/06/20 05:55:14;;;;;;;;;;;;;;;20.39;77.91;100643.19;4945565;28;1610;-58
2021/06/20 05:57:42;;;;;;;;;;;;;;;20.39;77.62;100649.41;4949946;28;1368;-57
2021/06/20 06:00:10;;;;;;;;;;;;;;;20.36;77.59;100646.19;4948118;28;1915;-58
2021/06/20 06:02:37;;;;;;;;;;;;;;;20.37;78.56;100645.16;4948684;29;1594;-59
2021/06/20 06:05:04;;;;;;;;;;;;;;;20.38;77.42;100641.50;4945271;29;1527;-57
2021/06/20 06:07:30;;;;;;;;;;;;;;;20.36;77.53;100641.66;4950528;29;1494;-58
2021/06/20 06:09:57;;;;;;;;;;;;;;;20.37;78.05;100621.00;4949523;29;1468;-59
2021/06/20 06:12:24;;;;;;;;;;;;;;;20.36;78.17;100635.44;4945031;29;1343;-59
2021/06/20 06:14:53;;;;;;;;;;;;;;;20.39;77.94;100632.44;4948232;29;1413;-59
2021/06/20 06:17:21;;;;;;;;;;;;;;;20.36;77.51;100622.84;4948290;28;1580;-58
2021/06/20 06:19:48;;;;;;;;;;;;;;;20.35;77.96;100622.97;4948444;28;1495;-58
2021/06/20 06:22:16;;;;;;;;;;;;;;;20.36;78.03;100628.22;4948278;28;1978;-58
2021/06/20 06:24:43;;;;;;;;;;;;;;;20.37;77.58;100635.28;4948449;29;1402;-58
2021/06/20 06:27:09;;;;;;;;;;;;;;;20.33;78.15;100633.03;4953145;28;1589;-59
2021/06/20 06:29:36;;;;;;;;;;;;;;;20.23;77.78;100625.88;4948671;28;1550;-58
2021/06/20 06:32:04;;;;;;;;;;;;;;;20.26;77.98;100628.25;4952320;29;1563;-60
2021/06/20 06:34:31;;;;;;;;;;;;;;;20.37;78.14;100634.44;4951215;29;1521;-57
2021/06/20 06:36:57;;;;;;;;;;;;;;;20.37;78.54;100631.75;4951394;29;1406;-57
2021/06/20 06:39:25;;;;;;;;;;;;;;;20.40;78.43;100639.50;4950522;28;1562;-57
2021/06/20 06:41:52;;;;;;;;;;;;;;;20.40;78.40;100631.47;4948325;29;1907;-59
2021/06/20 06:44:19;;;;;;;;;;;;;;;20.40;77.42;100620.72;4945380;29;1316;-59
2021/06/20 06:46:45;;;;;;;;;;;;;;;20.37;78.08;100634.44;4949628;28;1402;-59
2021/06/20 06:49:13;;;;;;;;;;;;;;;20.40;77.61;100631.47;4950779;28;1487;-60
2021/06/20 06:51:40;;;;;;;;;;;;;;;20.29;78.63;100637.00;4945664;28;1475;-57
2021/06/20 06:54:06;;;;;;;;;;;;;;;20.22;78.45;100645.66;4955827;28;1604;-58
2021/06/20 06:56:33;;;;;;;;;;;;;;;20.31;78.49;100635.03;4955156;28;1561;-58
2021/06/20 06:59:00;;;;;;;;;;;;;;;20.32;77.99;100644.78;4955685;29;1720;-57
2021/06/20 07:01:26;;;;;;;;;;;;;;;20.30;78.76;100638.72;4952009;28;1918;-59
2021/06/20 07:03:53;;;;;;;;;;;;;;;20.39;78.34;100643.19;4956877;28;1512;-58
2021/06/20 07:06:21;;;;;;;;;;;;;;;20.47;78.40;100645.97;4957684;28;1563;-57
2021/06/20 07:08:48;;;;;;;;;;;;;;;20.48;77.83;100653.06;4960121;28;1559;-60
2021/06/20 07:11:14;;;;;;;;;;;;;;;20.50;78.81;100644.84;4950016;28;1452;-60
2021/06/20 07:13:41;;;;;;;;;;;;;;;20.43;78.59;100656.19;4951313;28;1439;-57
2021/06/20 07:16:07;;;;;;;;;;;;;;;20.50;79.28;100647.53;4953819;28;1355;-58
2021/06/20 07:18:34;;;;;;;;;;;;;;;20.48;79.04;100653.06;4956656;28;1507;-58
2021/06/20 07:21:02;;;;;;;;;;;;;;;20.31;78.83;100641.22;4957253;28;1898;-58
2021/06/20 07:23:30;;;;;;;;;;;;;;;20.27;79.58;100642.53;4956948;28;1530;-59
2021/06/20 07:25:57;;;;;;;;;;;;;;;19.99;79.61;100647.81;4948043;28;1476;-59
2021/06/20 07:28:23;;;;;;;;;;;;;;;20.04;79.04;100644.72;4957901;28;1752;-57
2021/06/20 07:30:50;;;;;;;;;;;;;;;19.97;79.46;100635.53;4954879;28;1444;-59
2021/06/20 07:33:17;;;;;;;;;;;;;;;20.08;79.44;100637.22;4949779;28;1511;-58
2021/06/20 07:35:45;;;;;;;;;;;;;;;20.24;79.26;100635.59;4948393;28;1501;-59
2021/06/20 07:38:12;;;;;;;;;;;;;;;20.36;78.24;100638.13;4953167;28;1856;-58
2021/06/20 07:40:40;;;;;;;;;;;;;;;20.08;78.58;100589.75;4954977;28;1911;-58
2021/06/20 07:43:07;;;;;;;;;;;;;;;20.43;78.96;100639.19;4954032;28;1467;-57
2021/06/20 07:45:33;;;;;;;;;;;;;;;20.43;78.19;100629.34;4951863;28;1436;-57
2021/06/20 07:48:00;;;;;;;;;;;;;;;20.43;78.75;100641.88;4953844;28;1693;-59
2021/06/20 07:50:27;;;;;;;;;;;;;;;20.39;79.11;100632.44;4952080;28;1464;-58
2021/06/20 07:52:54;;;;;;;;;;;;;;;20.53;78.20;100617.66;4951728;28;1503;-59
2021/06/20 07:55:21;;;;;;;;;;;;;;;20.58;78.56;100635.03;4950009;28;1421;-58
2021/06/20 07:57:49;;;;;;;;;;;;;;;20.35;79.58;100622.97;4952332;28;1317;-59
2021/06/20 08:00:16;;;;;;;;;;;;;;;20.05;80.56;100625.81;4949531;28;1483;-59
2021/06/20 08:02:42;;;;;;;;;;;;;;;20.44;79.31;100609.50;4949751;28;2030;-59
2021/06/20 08:05:10;;;;;;;;;;;;;;;20.62;78.37;100625.72;4924464;28;10946;-58
2021/06/20 08:07:36;;;;;;;;;;;;;;;20.66;78.74;100639.69;4924082;29;1597;-67
2021/06/20 08:10:03;;;;;;;;;;;;;;;20.66;78.37;100624.41;4955918;28;1632;-57
2021/06/20 08:12:30;;;;;;;;;;;;;;;20.74;77.82;100617.47;4953630;28;1578;-58
2021/06/20 08:14:58;;;;;;;;;;;;;;;20.75;78.12;100620.00;4951923;29;1456;-64
2021/06/20 08:17:25;;;;;;;;;;;;;;;20.78;78.28;100616.16;4952952;28;1481;-65
2021/06/20 08:19:52;;;;;;;;;;;;;;;20.80;78.22;100614.16;4952305;28;1594;-65
2021/06/20 08:22:19;;;;;;;;;;;;;;;20.75;76.96;100611.94;4959200;28;1982;-57
2021/06/20 08:24:46;;;;;;;;;;;;;;;20.78;77.78;100616.16;4957923;28;1391;-76
2021/06/20 08:27:13;;;;;;;;;;;;;;;20.73;78.43;100608.56;4951924;28;1738;-73
2021/06/20 08:29:39;;;;;;;;;;;;;;;20.79;78.22;100610.66;4948518;28;1488;-73
2021/06/20 08:32:07;;;;;;;;;;;;;;;20.71;77.36;100605.19;4952508;28;1420;-75
2021/06/20 08:34:34;;;;;;;;;;;;;;;20.75;77.48;100605.69;4949355;28;1427;-77
2021/06/20 08:37:01;;;;;;;;;;;;;;;20.81;77.95;100616.72;4955028;28;1500;-78
2021/06/20 08:39:28;;;;;;;;;;;;;;;20.86;77.82;100608.19;4949682;28;1493;-59
2021/06/20 08:41:55;;;;;;;;;;;;;;;20.88;77.54;100611.56;4946006;28;1989;-61
2021/06/20 08:44:25;;;;;;;;;;;;;;;20.93;77.55;100611.97;4947397;28;1413;-69
2021/06/20 08:46:52;;;;;;;;;;;;;;;21.00;77.37;100614.88;4953572;28;1443;-77
2021/06/20 08:49:20;;;;;;;;;;;;;;;20.99;77.55;100621.25;4947646;28;1647;-60
2021/06/20 08:51:48;;;;;;;;;;;;;;;20.96;76.97;100595.53;4949842;28;1702;-60
2021/06/20 08:54:15;;;;;;;;;;;;;;;21.00;77.95;100601.44;4946210;28;1483;-60
2021/06/20 08:56:42;;;;;;;;;;;;;;;21.16;77.75;100609.66;4949817;28;1433;-67
2021/06/20 08:59:09;;;;;;;;;;;;;;;21.19;77.36;100609.38;4949332;28;1404;-66
2021/06/20 09:01:36;;;;;;;;;;;;;;;21.23;76.96;100615.28;4951419;28;1938;-61
2021/06/20 09:04:02;;;;;;;;;;;;;;;21.17;77.00;100618.56;4950553;28;1513;-61
2021/06/20 09:06:31;;;;;;;;;;;;;;;21.15;77.41;100616.06;4943376;28;1459;-58
2021/06/20 09:08:59;;;;;;;;;;;;;;;21.14;77.21;100627.78;4942855;29;1542;-63
2021/06/20 09:11:26;;;;;;;;;;;;;;;21.06;77.32;100625.88;4950993;28;1487;-64
2021/06/20 09:14:00;;;;;;;;;;;;;;;21.11;77.07;100621.88;4946128;28;1616;-63
2021/06/20 09:16:27;;;;;;;;;;;;;;;21.13;77.13;100609.97;4945666;28;1468;-58
2021/06/20 09:18:54;;;;;;;;;;;;;;;21.10;76.92;100622.88;4949954;29;1507;-59
2021/06/20 09:21:24;;;;;;;;;;;;;;;21.01;77.75;100606.69;4940454;28;1906;-64
2021/06/20 09:23:52;;;;;;;;;;;;;;;21.00;77.03;100604.97;4945136;29;1619;-58
2021/06/20 09:26:19;;;;;;;;;;;;;;;21.05;78.08;100604.53;4949237;29;1487;-64
2021/06/20 09:28:48;;;;;;;;;;;;;;;21.08;77.83;100614.13;4947000;29;1624;-58
2021/06/20 09:31:14;;;;;;;;;;;;;;;21.16;77.76;100616.88;4948701;28;1726;-59
2021/06/20 09:33:41;;;;;;;;;;;;;;;21.12;77.73;100604.75;4948361;29;1396;-57
2021/06/20 09:36:07;;;;;;;;;;;;;;;21.16;77.17;100603.44;4944484;28;1460;-57
2021/06/20 09:38:35;;;;;;;;;;;;;;;21.36;76.74;100610.34;4947807;28;1514;-57
2021/06/20 09:41:04;;;;;;;;;;;;;;;21.44;76.63;100583.53;4950883;28;1903;-58
2021/06/20 09:43:32;;;;;;;;;;;;;;;21.39;77.13;100596.59;4950995;28;1727;-60
2021/06/20 09:45:59;;;;;;;;;;;;;;;21.34;77.57;100581.91;4950153;28;1429;-67
2021/06/20 09:48:27;;;;;;;;;;;;;;;21.31;78.17;100595.66;4946087;29;1501;-60
2021/06/20 09:50:54;;;;;;;;;;;;;;;21.36;77.37;100602.28;4950126;28;1771;-64
2021/06/20 09:53:21;;;;;;;;;;;;;;;21.41;77.14;100591.91;4951539;28;1500;-71
2021/06/20 09:55:48;;;;;;;;;;;;;;;21.44;77.30;100575.47;4951111;29;1735;-62
2021/06/20 09:58:21;;;;;;;;;;;;;;;21.51;78.29;100608.00;4951887;28;1356;-62
2021/06/20 10:00:47;;;;;;;;;;;;;;;21.63;77.73;100595.13;4951523;29;1468;-61
2021/06/20 10:03:22;;;;;;;;;;;;;;;21.61;76.60;100603.34;4948002;28;1907;-62
2021/06/20 10:05:51;;;;;;;;;;;;;;;21.55;76.98;100603.16;4949240;29;1452;-63
2021/06/20 10:08:18;;;;;;;;;;;;;;;21.52;76.94;100603.44;4949547;28;1443;-61
2021/06/20 10:10:44;;;;;;;;;;;;;;;21.49;76.97;100587.59;4942723;28;1500;-64
2021/06/20 10:13:11;;;;;;;;;;;;;;;21.43;76.93;100600.69;4950113;28;1471;-66
2021/06/20 10:15:39;;;;;;;;;;;;;;;21.45;76.76;100569.09;4950305;29;1463;-64
2021/06/20 10:18:07;;;;;;;;;;;;;;;21.57;76.83;100599.28;4950887;28;1632;-69
2021/06/20 10:20:35;;;;;;;;;;;;;;;21.60;76.14;100580.13;4948445;28;1548;-64
2021/06/20 10:23:03;;;;;;;;;;;;;;;21.53;76.42;100589.00;4952395;29;1907;-63
2021/06/20 10:25:31;;;;;;;;;;;;;;;21.54;76.83;100596.06;4950790;28;1529;-62
2021/06/20 10:27:59;;;;;;;;;;;;;;;21.57;76.65;100564.31;4950276;28;1727;-67
2021/06/20 10:30:25;;;;;;;;;;;;;;;21.63;76.96;100579.00;4951253;29;1525;-64
2021/06/20 10:32:53;;;;;;;;;;;;;;;21.64;76.91;100567.22;4954606;29;1492;-68
2021/06/20 10:35:21;;;;;;;;;;;;;;;21.67;77.04;100552.63;4949963;28;1731;-66
2021/06/20 10:37:48;;;;;;;;;;;;;;;21.69;77.34;100567.59;4956119;29;1849;-71
2021/06/20 10:40:22;;;;;;;;;;;;;;;21.68;77.62;100555.13;4953625;29;1514;-66
2021/06/20 10:42:50;;;;;;;;;;;;;;;21.66;78.36;100554.44;4954782;29;1902;-72
2021/06/20 10:45:27;;;;;;;;;;;;;;;21.69;77.84;100539.84;4956081;28;1432;-63
2021/06/20 10:47:55;;;;;;;;;;;;;;;21.72;77.33;100537.66;4948828;29;1860;-63
2021/06/20 10:50:22;;;;;;;;;;;;;;;21.70;78.19;100542.34;4954222;28;1559;-63
2021/06/20 10:52:55;;;;;;;;;;;;;;;21.68;77.55;100532.75;4952549;28;1609;-71
2021/06/20 10:55:22;;;;;;;;;;;;;;;21.65;77.60;100533.94;4955164;28;1444;-65
2021/06/20 10:57:50;;;;;;;;;;;;;;;21.63;77.95;100533.25;4951331;28;1424;-61
2021/06/20 11:00:26;;;;;;;;;;;;;;;21.66;78.65;100527.53;4954451;28;1554;-63
2021/06/20 11:02:54;;;;;;;;;;;;;;;21.80;77.42;100532.31;4955355;29;1906;-60
2021/06/20 11:05:24;;;;;;;;;;;;;;;21.80;77.71;100524.25;4954924;29;1664;-64
2021/06/20 11:07:50;;;;;;;;;;;;;;;21.70;78.07;100528.91;4955469;28;1498;-59
2021/06/20 11:10:24;;;;;;;;;;;;;;;21.60;78.33;100525.47;4952983;28;1635;-75
2021/06/20 11:12:59;;;;;;;;;;;;;;;21.62;78.62;100527.00;4952068;29;1322;-64
2021/06/20 11:15:27;;;;;;;;;;;;;;;21.57;78.81;100531.19;4951353;29;1562;-64
2021/06/20 11:18:04;;;;;;;;;;;;;;;21.51;78.36;100523.75;4952597;28;1413;-59
2021/06/20 11:20:32;;;;;;;;;;;;;;;21.53;78.88;100530.66;4951457;29;1767;-62
2021/06/20 11:22:59;;;;;;;;;;;;;;;21.55;78.14;100562.78;4954573;28;1915;-57
2021/06/20 11:25:25;;;;;;;;;;;;;;;21.46;79.41;100556.50;4955512;28;1414;-61
2021/06/20 11:27:52;;;;;;;;;;;;;;;21.44;79.91;100531.59;4953815;28;1519;-58
2021/06/20 11:30:19;;;;;;;;;;;;;;;21.43;79.55;100538.81;4953169;29;1537;-59
2021/06/20 11:32:46;;;;;;;;;;;;;;;21.45;79.63;100555.66;4954224;28;1561;-64
2021/06/20 11:35:15;;;;;;;;;;;;;;;21.47;79.42;100551.94;4953549;29;1455;-71
2021/06/20 11:37:44;;;;;;;;;;;;;;;21.47;80.42;100522.34;4949185;28;1506;-61
2021/06/20 11:40:12;;;;;;;;;;;;;;;21.42;79.98;100537.09;4953173;28;1401;-59
2021/06/20 11:42:40;;;;;;;;;;;;;;;21.43;80.12;100519.16;4955321;29;1985;-65
2021/06/20 11:45:08;;;;;;;;;;;;;;;21.42;79.55;100515.56;4953291;29;1392;-58
2021/06/20 11:47:37;;;;;;;;;;;;;;;21.44;79.68;100532.44;4953245;29;1738;-60
2021/06/20 11:50:11;;;;;;;;;;;;;;;21.63;79.45;100514.41;4953936;28;1518;-61
2021/06/20 11:52:37;;;;;;;;;;;;;;;21.61;79.37;100516.41;4955089;28;1393;-63
2021/06/20 11:55:10;;;;;;;;;;;;;;;21.52;79.28;100545.09;4953182;29;1550;-65
2021/06/20 11:57:37;;;;;;;;;;;;;;;21.44;79.58;100545.03;4945514;29;1306;-61
2021/06/20 12:00:07;;;;;;;;;;;;;;;21.38;80.02;100535.72;4953642;29;1511;-65
2021/06/20 12:02:34;;;;;;;;;;;;;;;21.42;78.85;100557.78;4951218;29;1910;-71
2021/06/20 12:05:00;;;;;;;;;;;;;;;21.42;78.92;100560.47;4948647;28;1674;-68
2021/06/20 12:07:27;;;;;;;;;;;;;;;21.36;79.44;100563.78;4946852;29;1615;-67
2021/06/20 12:09:54;;;;;;;;;;;;;;;21.14;80.21;100559.72;4949912;28;1420;-67
2021/06/20 12:12:22;;;;;;;;;;;;;;;20.78;81.51;100562.41;4953020;29;1315;-67
2021/06/20 12:14:57;;;;;;;;;;;;;;;20.79;82.06;100564.09;4949805;28;1468;-67
2021/06/20 12:17:23;;;;;;;;;;;;;;;20.89;81.37;100562.19;4952044;29;1392;-67
2021/06/20 12:19:50;;;;;;;;;;;;;;;20.95;80.67;100556.22;4953206;28;1443;-59
2021/06/20 12:22:17;;;;;;;;;;;;;;;20.97;81.06;100551.53;4954233;28;1914;-65
2021/06/20 12:24:45;;;;;;;;;;;;;;;20.95;81.15;100553.53;4953762;29;1566;-60
2021/06/20 12:27:12;;;;;;;;;;;;;;;20.94;80.95;100530.31;4605776;29;10000114;-60
2021/06/20 12:29:40;;;;;;;;;;;;;;;20.90;81.44;100544.22;4945594;29;1677;-69
2021/06/20 12:32:13;;;;;;;;;;;;;;;20.94;81.43;100534.84;4947019;28;1288;-70
2021/06/20 12:34:40;;;;;;;;;;;;;;;20.98;80.75;100539.75;4945368;29;1685;-60
2021/06/20 12:37:07;;;;;;;;;;;;;;;20.86;80.87;100532.94;4945777;28;1516;-60
2021/06/20 12:39:44;;;;;;;;;;;;;;;20.88;81.28;100536.31;4945089;29;1679;-59
2021/06/20 12:42:11;;;;;;;;;;;;;;;20.89;80.78;100526.41;4946963;29;1934;-59
2021/06/20 12:44:40;;;;;;;;;;;;;;;20.92;80.70;100510.81;4942898;28;1451;-69
2021/06/20 12:47:06;;;;;;;;;;;;;;;20.91;81.06;100532.47;4940234;29;1338;-59